Osprey 1 — CFG7757 — position and weather

sailwx.info

Track history (hours):
 
Tides and Currents Weather Stations Pressure Air Temp Water Temp Dewpoint Dewpoint Depression Visibility Wind Speed Wind Dir Waves Ship Positions

Osprey 1

Last reported at 2017-Oct-14 07:32 UTC. Time now 2017-Oct-18 07:58 UTC.
Position N 50°20' W 128°24'.

Length 57 m; draft 5.5 m.

Type: Fishing. MMSI: 316005998.

Date/timePositionNaut miles runAvg speedWind from/ knotsBaromVisibWave heightAir tempDewpointWater temp
2017-Oct-14 07:32N 50°20' W 128°24'0 4.2
2017-Oct-14 07:30N 50°20' W 128°24'3 1.4
2017-Oct-14 05:35N 50°22' W 128°27'2 2.9
2017-Oct-14 05:00N 50°21' W 128°25'1 2.9
2017-Oct-14 04:30N 50°20' W 128°23'2 3.0
2017-Oct-14 03:58N 50°19' W 128°21'3 3.4
2017-Oct-14 02:57N 50°16' W 128°18'1 2.1
2017-Oct-14 02:23N 50°17' W 128°19'1 2.3
2017-Oct-14 01:51N 50°18' W 128°20'3 1.1
2017-Oct-13 23:20N 50°20' W 128°23'1 2.2
2017-Oct-13 23:00N 50°19' W 128°22'1 2.9
2017-Oct-13 22:30N 50°18' W 128°21'1 1.4
2017-Oct-13 21:48N 50°18' W 128°19'1 3.2
2017-Oct-13 21:29N 50°19' W 128°21'2 0.3
2017-Oct-13 13:04N 50°20' W 128°23'35 0.9
2017-Oct-11 22:27N 50°53' W 128°06'810.1
2017-Oct-11 21:38N 50°53' W 127°53'111.1
2017-Oct-11 21:30N 50°52' W 127°51'611.3
2017-Oct-11 21:00N 50°50' W 127°43'611.4
2017-Oct-11 20:30N 50°48' W 127°34'510.4
2017-Oct-11 19:59N 50°44' W 127°28'1 1.7
2017-Oct-11 19:30N 50°43' W 127°29'16 7.2
2017-Oct-11 17:20N 50°37' W 127°07'412.0
2017-Oct-11 17:00N 50°36' W 127°00'17210.1
2017-Oct-11 00:00N 49°17' W 123°03'0 0.0
2017-Oct-10 23:30N 49°17' W 123°03'0 0.0
2017-Oct-10 23:00N 49°17' W 123°03'0 0.0
2017-Oct-10 22:30N 49°17' W 123°03'0 0.0
2017-Oct-10 22:00N 49°17' W 123°03'0 0.0
2017-Oct-10 21:30N 49°17' W 123°03'0 0.0
2017-Oct-10 21:00N 49°17' W 123°03'0 0.0
2017-Oct-10 20:30N 49°17' W 123°03'0 0.0
2017-Oct-10 20:00N 49°17' W 123°03'0 0.0
2017-Oct-10 19:30N 49°17' W 123°03'0 0.0
2017-Oct-10 19:00N 49°17' W 123°03'0 0.0
2017-Oct-10 18:30N 49°17' W 123°03'0 0.0
2017-Oct-10 18:00N 49°17' W 123°03'0 0.0
2017-Oct-10 17:30N 49°17' W 123°03'0 0.0
2017-Oct-10 17:00N 49°17' W 123°03'0 0.0
2017-Oct-10 16:30N 49°17' W 123°03'0 0.0
2017-Oct-10 16:00N 49°17' W 123°03'0 0.0
2017-Oct-10 15:30N 49°17' W 123°03'0 0.0
2017-Oct-10 15:00N 49°17' W 123°03'0 0.0
2017-Oct-10 14:00N 49°17' W 123°03'0 0.0
2017-Oct-10 13:30N 49°17' W 123°03'0 0.0
2017-Oct-10 13:00N 49°17' W 123°03'0 0.0
2017-Oct-10 12:30N 49°17' W 123°03'0 0.4
2017-Oct-10 12:00N 49°18' W 123°04'510.6
2017-Oct-10 11:30N 49°19' W 123°12'611.8
2017-Oct-10 11:00N 49°19' W 123°21'611.9
2017-Oct-10 10:30N 49°20' W 123°30'611.8
2017-Oct-10 10:00N 49°22' W 123°38'611.8
2017-Oct-10 09:30N 49°24' W 123°47'611.8
2017-Oct-10 09:00N 49°26' W 123°55'611.7
2017-Oct-10 08:30N 49°28' W 124°04'612.0
2017-Oct-10 08:00N 49°31' W 124°12'612.2
2017-Oct-10 07:30N 49°33' W 124°20'612.0
2017-Oct-10 07:00N 49°37' W 124°28'612.3
2017-Oct-10 06:30N 49°40' W 124°36'612.1
2017-Oct-10 06:00N 49°44' W 124°43'611.9
2017-Oct-10 05:30N 49°48' W 124°50'611.9
2017-Oct-10 05:00N 49°52' W 124°57'4 7.7
2017-Oct-10 04:30N 49°54' W 125°02'4 7.9
2017-Oct-10 04:00N 49°57' W 125°06'611.3
2017-Oct-10 03:30N 50°01' W 125°13'713.1
2017-Oct-10 03:00N 50°06' W 125°18'611.5
2017-Oct-10 02:30N 50°11' W 125°22'612.6
2017-Oct-10 02:00N 50°18' W 125°25'4912.2
2017-Oct-09 21:56N 50°32' W 126°39'611.6
2017-Oct-09 21:24N 50°36' W 126°45'612.6
2017-Oct-09 20:55N 50°41' W 126°52'612.6
2017-Oct-09 20:28N 50°42' W 127°01'712.0
2017-Oct-09 19:53N 50°45' W 127°11'512.0
2017-Oct-09 19:30N 50°46' W 127°18'611.6
2017-Oct-09 19:00N 50°47' W 127°27'611.9
2017-Oct-09 18:30N 50°49' W 127°36'612.3
2017-Oct-09 18:00N 50°51' W 127°46'30 3.2
2017-Oct-09 08:25N 50°34' W 128°25'2 4.0
2017-Oct-09 08:00N 50°35' W 128°27'2 2.6
2017-Oct-09 07:05N 50°36' W 128°30'0 2.9
2017-Oct-09 06:59N 50°36' W 128°30'2 2.9
2017-Oct-09 06:19N 50°37' W 128°33'2 2.3
2017-Oct-09 05:29N 50°39' W 128°34'1 2.4
2017-Oct-09 05:00N 50°40' W 128°35'5 2.6
2017-Oct-09 03:09N 50°36' W 128°31'2 8.6
2017-Oct-09 02:58N 50°37' W 128°32'6 9.1
2017-Oct-09 02:15N 50°41' W 128°40'1 0.1
2017-Oct-08 22:20N 50°41' W 128°41'1 1.9
2017-Oct-08 21:59N 50°42' W 128°42'12 2.1
2017-Oct-08 16:14N 50°34' W 128°27'5 0.8
2017-Oct-08 09:14N 50°30' W 128°21'1 3.5
2017-Oct-08 09:00N 50°30' W 128°22'2 3.3
2017-Oct-08 08:15N 50°32' W 128°24'2 1.5
2017-Oct-08 07:12N 50°31' W 128°23'2 7.8
2017-Oct-08 06:58N 50°30' W 128°22'0 0.2
2017-Oct-08 05:04N 50°29' W 128°22'1 3.3
2017-Oct-08 04:50N 50°30' W 128°22'1 3.3
2017-Oct-08 04:29N 50°31' W 128°23'2 1.0
2017-Oct-08 02:40N 50°33' W 128°24'3 1.7
2017-Oct-08 00:45N 50°30' W 128°22'1 0.2
2017-Oct-07 20:37N 50°29' W 128°22'2 0.3
2017-Oct-07 12:40N 50°31' W 128°23'1 3.1
2017-Oct-07 12:22N 50°30' W 128°22'1 0.6
2017-Oct-07 11:18N 50°30' W 128°21'2 3.2
2017-Oct-07 10:48N 50°31' W 128°23'1 3.3
2017-Oct-07 10:29N 50°32' W 128°24'2 3.4
2017-Oct-07 09:57N 50°33' W 128°26'2 2.7
2017-Oct-07 09:03N 50°32' W 128°23'9 0.5
2017-Oct-06 13:49N 50°23' W 128°23'9 0.5
2017-Oct-05 21:59N 50°17' W 128°13'1 2.6
2017-Oct-05 21:25N 50°17' W 128°15'1 2.3
2017-Oct-05 20:53N 50°17' W 128°13'5 1.8
2017-Oct-05 17:46N 50°13' W 128°07'2 2.5
2017-Oct-05 16:45N 50°15' W 128°09'7 3.1
2017-Oct-05 14:20N 50°19' W 128°19'2 6.0
2017-Oct-05 14:00N 50°21' W 128°20'1 2.7
2017-Oct-05 13:28N 50°22' W 128°22'1 3.0
2017-Oct-05 12:59N 50°22' W 128°25'1 2.9
2017-Oct-05 12:30N 50°23' W 128°26'1 2.9
2017-Oct-05 12:00N 50°24' W 128°28'1 2.9
2017-Oct-05 11:30N 50°25' W 128°28'2 3.3
2017-Oct-05 11:00N 50°27' W 128°30'1 1.5
2017-Oct-05 10:25N 50°26' W 128°29'2 2.3
2017-Oct-05 09:39N 50°24' W 128°28'1 3.4
2017-Oct-05 09:29N 50°24' W 128°28'2 3.3
2017-Oct-05 09:00N 50°23' W 128°26'2 3.1
2017-Oct-05 08:26N 50°22' W 128°24'2 3.2
2017-Oct-05 07:56N 50°21' W 128°21'1 3.6
2017-Oct-05 07:31N 50°21' W 128°19'4 8.0
2017-Oct-05 07:00N 50°22' W 128°25'3 6.0
2017-Oct-05 06:30N 50°24' W 128°28'1 2.8
2017-Oct-05 06:00N 50°23' W 128°27'1 2.9
2017-Oct-05 05:30N 50°22' W 128°25'2 3.1
2017-Oct-05 05:00N 50°22' W 128°23'2 3.1
2017-Oct-05 04:27N 50°22' W 128°20'0 0.3
2017-Oct-05 04:00N 50°21' W 128°20'9 2.9
2017-Oct-05 00:47N 50°16' W 128°09'0 0.4
2017-Oct-05 00:14N 50°16' W 128°09'7 0.8
2017-Oct-04 14:32N 50°20' W 128°19'010.3
2017-Oct-04 14:30N 50°20' W 128°19'2 1.8
2017-Oct-04 13:26N 50°22' W 128°19'3 5.9
2017-Oct-04 13:00N 50°21' W 128°23'4 7.2
2017-Oct-04 12:30N 50°23' W 128°27'2 3.3
2017-Oct-04 12:00N 50°24' W 128°29'1 2.3
2017-Oct-04 11:24N 50°24' W 128°27'1 3.3
2017-Oct-04 11:00N 50°22' W 128°26'2 3.2
2017-Oct-04 10:30N 50°22' W 128°24'2 3.3
2017-Oct-04 10:00N 50°22' W 128°21'2 3.7
2017-Oct-04 09:22N 50°22' W 128°18'2 4.6
2017-Oct-04 08:56N 50°21' W 128°21'2 4.3
2017-Oct-04 08:30N 50°22' W 128°24'1 1.9
2017-Oct-04 08:00N 50°22' W 128°25'  
Track history (hours):
 
Tides and Currents Weather Stations Pressure Air Temp Water Temp Dewpoint Dewpoint Depression Visibility Wind Speed Wind Dir Waves Ship Positions

Osprey 1

Last reported at 2017-Oct-14 07:32 UTC. Time now 2017-Oct-18 07:58 UTC.
Position N 50°20' W 128°24'.

Length 57 m; draft 5.5 m.

Type: Fishing. MMSI: 316005998.

Date/timePositionNaut miles runAvg speedWind from/ knotsBaromVisibWave heightAir tempDewpointWater temp
2017-Oct-14 07:32N 50°20' W 128°24'0 4.2
2017-Oct-14 07:30N 50°20' W 128°24'3 1.4
2017-Oct-14 05:35N 50°22' W 128°27'2 2.9
2017-Oct-14 05:00N 50°21' W 128°25'1 2.9
2017-Oct-14 04:30N 50°20' W 128°23'2 3.0
2017-Oct-14 03:58N 50°19' W 128°21'3 3.4
2017-Oct-14 02:57N 50°16' W 128°18'1 2.1
2017-Oct-14 02:23N 50°17' W 128°19'1 2.3
2017-Oct-14 01:51N 50°18' W 128°20'3 1.1
2017-Oct-13 23:20N 50°20' W 128°23'1 2.2
2017-Oct-13 23:00N 50°19' W 128°22'1 2.9
2017-Oct-13 22:30N 50°18' W 128°21'1 1.4
2017-Oct-13 21:48N 50°18' W 128°19'1 3.2
2017-Oct-13 21:29N 50°19' W 128°21'2 0.3
2017-Oct-13 13:04N 50°20' W 128°23'35 0.9
2017-Oct-11 22:27N 50°53' W 128°06'810.1
2017-Oct-11 21:38N 50°53' W 127°53'111.1
2017-Oct-11 21:30N 50°52' W 127°51'611.3
2017-Oct-11 21:00N 50°50' W 127°43'611.4
2017-Oct-11 20:30N 50°48' W 127°34'510.4
2017-Oct-11 19:59N 50°44' W 127°28'1 1.7
2017-Oct-11 19:30N 50°43' W 127°29'16 7.2
2017-Oct-11 17:20N 50°37' W 127°07'412.0
2017-Oct-11 17:00N 50°36' W 127°00'17210.1
2017-Oct-11 00:00N 49°17' W 123°03'0 0.0
2017-Oct-10 23:30N 49°17' W 123°03'0 0.0
2017-Oct-10 23:00N 49°17' W 123°03'0 0.0
2017-Oct-10 22:30N 49°17' W 123°03'0 0.0
2017-Oct-10 22:00N 49°17' W 123°03'0 0.0
2017-Oct-10 21:30N 49°17' W 123°03'0 0.0
2017-Oct-10 21:00N 49°17' W 123°03'0 0.0
2017-Oct-10 20:30N 49°17' W 123°03'0 0.0
2017-Oct-10 20:00N 49°17' W 123°03'0 0.0
2017-Oct-10 19:30N 49°17' W 123°03'0 0.0
2017-Oct-10 19:00N 49°17' W 123°03'0 0.0
2017-Oct-10 18:30N 49°17' W 123°03'0 0.0
2017-Oct-10 18:00N 49°17' W 123°03'0 0.0
2017-Oct-10 17:30N 49°17' W 123°03'0 0.0
2017-Oct-10 17:00N 49°17' W 123°03'0 0.0
2017-Oct-10 16:30N 49°17' W 123°03'0 0.0
2017-Oct-10 16:00N 49°17' W 123°03'0 0.0
2017-Oct-10 15:30N 49°17' W 123°03'0 0.0
2017-Oct-10 15:00N 49°17' W 123°03'0 0.0
2017-Oct-10 14:00N 49°17' W 123°03'0 0.0
2017-Oct-10 13:30N 49°17' W 123°03'0 0.0
2017-Oct-10 13:00N 49°17' W 123°03'0 0.0
2017-Oct-10 12:30N 49°17' W 123°03'0 0.4
2017-Oct-10 12:00N 49°18' W 123°04'510.6
2017-Oct-10 11:30N 49°19' W 123°12'611.8
2017-Oct-10 11:00N 49°19' W 123°21'611.9
2017-Oct-10 10:30N 49°20' W 123°30'611.8
2017-Oct-10 10:00N 49°22' W 123°38'611.8
2017-Oct-10 09:30N 49°24' W 123°47'611.8
2017-Oct-10 09:00N 49°26' W 123°55'611.7
2017-Oct-10 08:30N 49°28' W 124°04'612.0
2017-Oct-10 08:00N 49°31' W 124°12'612.2
2017-Oct-10 07:30N 49°33' W 124°20'612.0
2017-Oct-10 07:00N 49°37' W 124°28'612.3
2017-Oct-10 06:30N 49°40' W 124°36'612.1
2017-Oct-10 06:00N 49°44' W 124°43'611.9
2017-Oct-10 05:30N 49°48' W 124°50'611.9
2017-Oct-10 05:00N 49°52' W 124°57'4 7.7
2017-Oct-10 04:30N 49°54' W 125°02'4 7.9
2017-Oct-10 04:00N 49°57' W 125°06'611.3
2017-Oct-10 03:30N 50°01' W 125°13'713.1
2017-Oct-10 03:00N 50°06' W 125°18'611.5
2017-Oct-10 02:30N 50°11' W 125°22'612.6
2017-Oct-10 02:00N 50°18' W 125°25'4912.2
2017-Oct-09 21:56N 50°32' W 126°39'611.6
2017-Oct-09 21:24N 50°36' W 126°45'612.6
2017-Oct-09 20:55N 50°41' W 126°52'612.6
2017-Oct-09 20:28N 50°42' W 127°01'712.0
2017-Oct-09 19:53N 50°45' W 127°11'512.0
2017-Oct-09 19:30N 50°46' W 127°18'611.6
2017-Oct-09 19:00N 50°47' W 127°27'611.9
2017-Oct-09 18:30N 50°49' W 127°36'612.3
2017-Oct-09 18:00N 50°51' W 127°46'30 3.2
2017-Oct-09 08:25N 50°34' W 128°25'2 4.0
2017-Oct-09 08:00N 50°35' W 128°27'2 2.6
2017-Oct-09 07:05N 50°36' W 128°30'0 2.9
2017-Oct-09 06:59N 50°36' W 128°30'2 2.9
2017-Oct-09 06:19N 50°37' W 128°33'2 2.3
2017-Oct-09 05:29N 50°39' W 128°34'1 2.4
2017-Oct-09 05:00N 50°40' W 128°35'5 2.6
2017-Oct-09 03:09N 50°36' W 128°31'2 8.6
2017-Oct-09 02:58N 50°37' W 128°32'6 9.1
2017-Oct-09 02:15N 50°41' W 128°40'1 0.1
2017-Oct-08 22:20N 50°41' W 128°41'1 1.9
2017-Oct-08 21:59N 50°42' W 128°42'12 2.1
2017-Oct-08 16:14N 50°34' W 128°27'5 0.8
2017-Oct-08 09:14N 50°30' W 128°21'1 3.5
2017-Oct-08 09:00N 50°30' W 128°22'2 3.3
2017-Oct-08 08:15N 50°32' W 128°24'2 1.5
2017-Oct-08 07:12N 50°31' W 128°23'2 7.8
2017-Oct-08 06:58N 50°30' W 128°22'0 0.2
2017-Oct-08 05:04N 50°29' W 128°22'1 3.3
2017-Oct-08 04:50N 50°30' W 128°22'1 3.3
2017-Oct-08 04:29N 50°31' W 128°23'2 1.0
2017-Oct-08 02:40N 50°33' W 128°24'3 1.7
2017-Oct-08 00:45N 50°30' W 128°22'1 0.2
2017-Oct-07 20:37N 50°29' W 128°22'2 0.3
2017-Oct-07 12:40N 50°31' W 128°23'1 3.1
2017-Oct-07 12:22N 50°30' W 128°22'1 0.6
2017-Oct-07 11:18N 50°30' W 128°21'2 3.2
2017-Oct-07 10:48N 50°31' W 128°23'1 3.3
2017-Oct-07 10:29N 50°32' W 128°24'2 3.4
2017-Oct-07 09:57N 50°33' W 128°26'2 2.7
2017-Oct-07 09:03N 50°32' W 128°23'9 0.5
2017-Oct-06 13:49N 50°23' W 128°23'9 0.5
2017-Oct-05 21:59N 50°17' W 128°13'1 2.6
2017-Oct-05 21:25N 50°17' W 128°15'1 2.3
2017-Oct-05 20:53N 50°17' W 128°13'5 1.8
2017-Oct-05 17:46N 50°13' W 128°07'2 2.5
2017-Oct-05 16:45N 50°15' W 128°09'7 3.1
2017-Oct-05 14:20N 50°19' W 128°19'2 6.0
2017-Oct-05 14:00N 50°21' W 128°20'1 2.7
2017-Oct-05 13:28N 50°22' W 128°22'1 3.0
2017-Oct-05 12:59N 50°22' W 128°25'1 2.9
2017-Oct-05 12:30N 50°23' W 128°26'1 2.9
2017-Oct-05 12:00N 50°24' W 128°28'1 2.9
2017-Oct-05 11:30N 50°25' W 128°28'2 3.3
2017-Oct-05 11:00N 50°27' W 128°30'1 1.5
2017-Oct-05 10:25N 50°26' W 128°29'2 2.3
2017-Oct-05 09:39N 50°24' W 128°28'1 3.4
2017-Oct-05 09:29N 50°24' W 128°28'2 3.3
2017-Oct-05 09:00N 50°23' W 128°26'2 3.1
2017-Oct-05 08:26N 50°22' W 128°24'2 3.2
2017-Oct-05 07:56N 50°21' W 128°21'1 3.6
2017-Oct-05 07:31N 50°21' W 128°19'4 8.0
2017-Oct-05 07:00N 50°22' W 128°25'3 6.0
2017-Oct-05 06:30N 50°24' W 128°28'1 2.8
2017-Oct-05 06:00N 50°23' W 128°27'1 2.9
2017-Oct-05 05:30N 50°22' W 128°25'2 3.1
2017-Oct-05 05:00N 50°22' W 128°23'2 3.1
2017-Oct-05 04:27N 50°22' W 128°20'0 0.3
2017-Oct-05 04:00N 50°21' W 128°20'9 2.9
2017-Oct-05 00:47N 50°16' W 128°09'0 0.4
2017-Oct-05 00:14N 50°16' W 128°09'7 0.8
2017-Oct-04 14:32N 50°20' W 128°19'010.3
2017-Oct-04 14:30N 50°20' W 128°19'2 1.8
2017-Oct-04 13:26N 50°22' W 128°19'3 5.9
2017-Oct-04 13:00N 50°21' W 128°23'4 7.2
2017-Oct-04 12:30N 50°23' W 128°27'2 3.3
2017-Oct-04 12:00N 50°24' W 128°29'1 2.3
2017-Oct-04 11:24N 50°24' W 128°27'1 3.3
2017-Oct-04 11:00N 50°22' W 128°26'2 3.2
2017-Oct-04 10:30N 50°22' W 128°24'2 3.3
2017-Oct-04 10:00N 50°22' W 128°21'2 3.7
2017-Oct-04 09:22N 50°22' W 128°18'2 4.6
2017-Oct-04 08:56N 50°21' W 128°21'2 4.3
2017-Oct-04 08:30N 50°22' W 128°24'1 1.9
2017-Oct-04 08:00N 50°22' W 128°25'  

Dump ship's entire track history